createdAt,value
2018-06-20T00:01:20.131Z,3.70
2018-06-20T00:03:48.781Z,3.90
2018-06-20T00:06:17.385Z,3.90
2018-06-20T00:08:51.148Z,3.57
2018-06-20T00:11:21.621Z,3.80
2018-06-20T00:13:53.114Z,3.63
2018-06-20T00:16:21.693Z,3.43
2018-06-20T00:18:50.473Z,3.83
2018-06-20T00:21:19.106Z,4.10
2018-06-20T00:23:47.719Z,3.33
2018-06-20T00:26:16.350Z,3.90
2018-06-20T00:28:45.536Z,3.37
2018-06-20T00:31:14.124Z,3.93
2018-06-20T00:33:42.744Z,3.80
2018-06-20T00:36:11.354Z,3.97
2018-06-20T00:38:40.017Z,3.60
2018-06-20T00:41:10.710Z,3.73
2018-06-20T00:43:39.360Z,3.60
2018-06-20T00:46:09.299Z,4.17
2018-06-20T00:48:37.941Z,4.17
2018-06-20T00:51:06.614Z,3.87
2018-06-20T00:53:36.110Z,3.60
2018-06-20T00:56:15.820Z,3.40
2018-06-20T00:58:44.462Z,4.03
2018-06-20T01:01:14.681Z,4.50
2018-06-20T01:03:43.998Z,4.60
2018-06-20T01:06:12.869Z,5.27
2018-06-20T01:08:41.577Z,4.67
2018-06-20T01:11:12.122Z,4.20
2018-06-20T01:13:40.777Z,5.30
2018-06-20T01:16:09.499Z,5.23
2018-06-20T01:18:38.143Z,5.33
2018-06-20T01:21:08.895Z,5.43
2018-06-20T01:23:37.534Z,5.30
2018-06-20T01:26:06.220Z,6.50
2018-06-20T01:28:35.125Z,5.83
2018-06-20T01:31:03.734Z,6.40
2018-06-20T01:33:32.403Z,5.37
2018-06-20T01:36:01.013Z,4.57
2018-06-20T01:38:30.785Z,4.63
2018-06-20T01:40:59.386Z,4.20
2018-06-20T01:43:27.981Z,4.40
2018-06-20T01:45:56.590Z,4.30
2018-06-20T01:48:24.853Z,4.33
2018-06-20T01:50:56.300Z,4.40
2018-06-20T01:53:25.592Z,4.37
2018-06-20T01:55:54.217Z,4.37
2018-06-20T01:58:23.869Z,4.07
2018-06-20T02:00:52.477Z,3.67
2018-06-20T02:03:22.689Z,4.43
2018-06-20T02:05:51.386Z,4.20
2018-06-20T02:08:19.970Z,4.87
2018-06-20T02:10:50.033Z,4.73
2018-06-20T02:13:18.626Z,3.93
2018-06-20T02:15:47.229Z,4.77
2018-06-20T02:18:17.608Z,4.57
2018-06-20T02:20:46.242Z,4.07
2018-06-20T02:23:14.913Z,4.73
2018-06-20T02:25:43.514Z,5.00
2018-06-20T02:28:12.143Z,5.17
2018-06-20T02:30:40.825Z,4.50
2018-06-20T02:33:11.076Z,5.20
2018-06-20T02:35:39.850Z,4.90
2018-06-20T02:38:08.446Z,5.53
2018-06-20T02:40:37.142Z,4.73
2018-06-20T02:43:05.784Z,5.17
2018-06-20T02:45:34.396Z,4.97
2018-06-20T02:48:04.218Z,5.23
2018-06-20T02:50:32.813Z,4.73
2018-06-20T02:53:02.786Z,4.83
2018-06-20T02:55:31.365Z,5.40
2018-06-20T02:58:00.000Z,5.43
2018-06-20T03:00:28.618Z,6.43
2018-06-20T03:02:57.218Z,4.80
2018-06-20T03:05:25.870Z,5.40
2018-06-20T03:07:55.378Z,5.70
2018-06-20T03:10:23.986Z,5.53
2018-06-20T03:12:52.603Z,5.93
2018-06-20T03:15:21.198Z,5.63
2018-06-20T03:17:51.740Z,5.57
2018-06-20T03:20:20.333Z,5.73
2018-06-20T03:22:50.261Z,5.53
2018-06-20T03:25:19.114Z,5.50
2018-06-20T03:27:47.766Z,5.23
2018-06-20T03:30:16.356Z,5.33
2018-06-20T03:32:45.018Z,5.97
2018-06-20T03:35:13.631Z,5.70
2018-06-20T03:37:42.522Z,5.23
2018-06-20T03:40:11.146Z,5.97
2018-06-20T03:42:39.797Z,5.50
2018-06-20T03:45:08.505Z,5.47
2018-06-20T03:47:38.477Z,5.87
2018-06-20T03:50:08.614Z,5.70
2018-06-20T03:52:37.311Z,5.90
2018-06-20T03:55:06.091Z,5.73
2018-06-20T03:57:34.742Z,6.00
2018-06-20T04:00:03.392Z,5.47
2018-06-20T04:02:32.005Z,5.93
2018-06-20T04:05:02.718Z,6.73
2018-06-20T04:07:31.326Z,5.83
2018-06-20T04:09:59.921Z,5.50
2018-06-20T04:12:29.110Z,5.57
2018-06-20T04:14:57.681Z,5.80
2018-06-20T04:17:26.309Z,5.60
2018-06-20T04:19:54.953Z,5.70
2018-06-20T04:22:23.545Z,5.20
2018-06-20T04:24:52.125Z,5.83
2018-06-20T04:27:20.738Z,5.43
2018-06-20T04:29:49.306Z,6.00
2018-06-20T04:32:17.926Z,5.17
2018-06-20T04:34:46.551Z,5.17
2018-06-20T04:37:15.138Z,5.17
2018-06-20T04:39:43.368Z,5.10
2018-06-20T04:42:11.993Z,5.60
2018-06-20T04:44:40.631Z,5.33
2018-06-20T04:47:09.189Z,5.30
2018-06-20T04:49:37.803Z,5.37
2018-06-20T04:52:06.012Z,5.43
2018-06-20T04:54:34.617Z,5.30
2018-06-20T04:57:03.242Z,5.37
2018-06-20T04:59:31.809Z,5.17
2018-06-20T05:02:00.433Z,5.60
2018-06-20T05:04:29.037Z,5.23
2018-06-20T05:06:57.604Z,4.83
2018-06-20T05:09:26.222Z,5.20
2018-06-20T05:11:54.857Z,5.30
2018-06-20T05:14:23.425Z,5.60
2018-06-20T05:16:52.006Z,5.37
2018-06-20T05:19:20.593Z,5.30
2018-06-20T05:21:49.177Z,5.33
2018-06-20T05:24:17.749Z,5.73
2018-06-20T05:26:46.365Z,5.37
2018-06-20T05:29:14.949Z,5.37
2018-06-20T05:31:43.545Z,5.60
2018-06-20T05:34:11.774Z,5.80
2018-06-20T05:36:40.353Z,5.77
2018-06-20T05:39:10.468Z,5.73
2018-06-20T05:41:39.179Z,5.30
2018-06-20T05:44:08.487Z,5.60
2018-06-20T05:46:37.097Z,5.77
2018-06-20T05:49:06.087Z,5.57
2018-06-20T05:51:34.653Z,5.90
2018-06-20T05:54:03.237Z,6.07
2018-06-20T05:56:31.822Z,5.50
2018-06-20T05:59:00.436Z,5.77
2018-06-20T06:01:29.025Z,5.73
2018-06-20T06:03:57.650Z,5.93
2018-06-20T06:06:26.269Z,5.63
2018-06-20T06:08:54.841Z,5.63
2018-06-20T06:11:23.430Z,5.93
2018-06-20T06:13:52.005Z,5.40
2018-06-20T06:16:20.615Z,5.50
2018-06-20T06:18:49.188Z,5.00
2018-06-20T06:21:17.746Z,4.70
2018-06-20T06:23:46.337Z,5.07
2018-06-20T06:26:14.901Z,5.20
2018-06-20T06:28:43.500Z,4.40
2018-06-20T06:31:12.078Z,5.17
2018-06-20T06:33:40.636Z,4.93
2018-06-20T06:36:09.225Z,4.60
2018-06-20T06:38:37.789Z,5.07
2018-06-20T06:41:06.474Z,5.20
2018-06-20T06:43:35.049Z,4.83
2018-06-20T06:46:03.637Z,4.57
2018-06-20T06:48:32.265Z,4.90
2018-06-20T06:51:00.887Z,5.07
2018-06-20T06:53:29.475Z,5.17
2018-06-20T06:55:58.063Z,5.00
2018-06-20T06:58:26.719Z,10.20
2018-06-20T07:00:55.298Z,5.97
2018-06-20T07:03:23.865Z,5.50
2018-06-20T07:05:52.470Z,5.57
2018-06-20T07:08:21.061Z,5.40
2018-06-20T07:10:49.670Z,5.83
2018-06-20T07:13:18.261Z,6.17
2018-06-20T07:15:46.877Z,5.83
2018-06-20T07:18:15.445Z,5.60
2018-06-20T07:20:44.048Z,5.97
2018-06-20T07:23:12.622Z,5.37
2018-06-20T07:25:41.263Z,5.57
2018-06-20T07:28:09.861Z,14.50
2018-06-20T07:30:38.497Z,6.50
2018-06-20T07:33:07.582Z,6.13
2018-06-20T07:35:36.287Z,6.03
2018-06-20T07:38:04.813Z,5.33
2018-06-20T07:40:33.457Z,4.77
2018-06-20T07:43:02.103Z,5.50
2018-06-20T07:45:30.660Z,5.47
2018-06-20T07:47:59.371Z,5.00
2018-06-20T07:50:27.917Z,4.97
2018-06-20T07:52:56.481Z,4.47
2018-06-20T07:55:25.149Z,4.83
2018-06-20T07:57:53.710Z,4.97
2018-06-20T08:00:27.645Z,7.00
2018-06-20T08:03:12.962Z,5.03
2018-06-20T08:05:46.743Z,5.40
2018-06-20T08:08:20.555Z,6.10
2018-06-20T08:10:54.426Z,5.23
2018-06-20T08:13:28.371Z,4.93
2018-06-20T08:16:02.114Z,4.67
2018-06-20T08:18:35.985Z,4.63
2018-06-20T08:21:05.053Z,4.53
2018-06-20T08:23:33.629Z,4.90
2018-06-20T08:26:02.205Z,4.47
2018-06-20T08:28:30.781Z,4.60
2018-06-20T08:30:59.376Z,5.30
2018-06-20T08:33:27.997Z,5.10
2018-06-20T08:35:56.537Z,4.77
2018-06-20T08:38:25.155Z,4.07
2018-06-20T08:40:53.725Z,4.50
2018-06-20T08:43:22.336Z,4.77
2018-06-20T08:45:50.913Z,5.00
2018-06-20T08:48:19.474Z,4.90
2018-06-20T08:50:48.069Z,4.37
2018-06-20T08:53:16.633Z,4.17
2018-06-20T08:55:45.225Z,4.10
2018-06-20T08:58:13.798Z,4.20
2018-06-20T09:00:47.659Z,3.93
2018-06-20T09:03:16.245Z,3.77
2018-06-20T09:05:50.197Z,3.87
2018-06-20T09:08:24.017Z,3.30
2018-06-20T09:10:57.862Z,4.00
2018-06-20T09:13:31.637Z,4.45
2018-06-20T09:16:05.577Z,5.30
2018-06-20T09:18:39.514Z,3.80
2018-06-20T09:21:08.113Z,3.00
2018-06-20T09:23:36.701Z,3.45
2018-06-20T09:26:05.370Z,3.70
2018-06-20T09:28:33.935Z,3.58
2018-06-20T09:31:02.534Z,3.25
2018-06-20T09:33:31.129Z,3.65
2018-06-20T09:35:59.721Z,4.12
2018-06-20T09:38:28.330Z,3.37
2018-06-20T09:40:56.969Z,3.58
2018-06-20T09:43:25.561Z,2.85
2018-06-20T09:45:54.149Z,3.08
2018-06-20T09:48:22.738Z,3.12
2018-06-20T09:50:58.356Z,3.52
2018-06-20T09:53:27.506Z,2.75
2018-06-20T09:55:56.129Z,3.10
2018-06-20T09:58:24.749Z,2.77
2018-06-20T10:00:58.785Z,2.60
2018-06-20T10:03:32.616Z,2.75
2018-06-20T10:06:06.615Z,2.60
2018-06-20T10:08:40.333Z,2.47
2018-06-20T10:11:14.290Z,2.75
2018-06-20T10:13:47.965Z,2.65
2018-06-20T10:16:16.685Z,2.60
2018-06-20T10:18:45.257Z,1.98
2018-06-20T10:21:13.873Z,2.40
2018-06-20T10:23:42.445Z,2.25
2018-06-20T10:26:11.031Z,2.30
2018-06-20T10:28:39.721Z,2.58
2018-06-20T10:31:08.213Z,2.58
2018-06-20T10:33:36.781Z,2.60
2018-06-20T10:36:05.373Z,2.40
2018-06-20T10:38:34.141Z,2.70
2018-06-20T10:41:02.753Z,2.35
2018-06-20T10:43:31.334Z,2.30
2018-06-20T10:46:05.202Z,2.20
2018-06-20T10:48:33.821Z,2.20
2018-06-20T10:51:02.397Z,2.20
2018-06-20T10:53:31.018Z,2.17
2018-06-20T10:55:59.609Z,2.60
2018-06-20T10:58:33.358Z,2.40
2018-06-20T11:01:07.017Z,2.62
2018-06-20T11:03:40.959Z,2.15
2018-06-20T11:06:14.786Z,1.98
2018-06-20T11:08:48.405Z,2.00
2018-06-20T11:11:22.414Z,2.33
2018-06-20T11:13:51.049Z,2.25
2018-06-20T11:16:19.250Z,2.20
2018-06-20T11:18:50.864Z,2.30
2018-06-20T11:21:19.473Z,2.00
2018-06-20T11:23:48.051Z,1.90
2018-06-20T11:26:16.666Z,2.20
2018-06-20T11:28:45.250Z,2.05
2018-06-20T11:31:13.906Z,1.70
2018-06-20T11:33:42.441Z,1.85
2018-06-20T11:36:11.033Z,2.00
2018-06-20T11:38:39.619Z,1.90
2018-06-20T11:41:08.270Z,2.00
2018-06-20T11:43:36.845Z,1.95
2018-06-20T11:46:10.836Z,1.70
2018-06-20T11:48:39.421Z,1.82
2018-06-20T11:51:08.725Z,2.12
2018-06-20T11:53:37.338Z,2.15
2018-06-20T11:56:05.944Z,1.75
2018-06-20T11:58:39.834Z,1.80
2018-06-20T12:01:13.557Z,1.80
2018-06-20T12:03:47.399Z,1.77
2018-06-20T12:06:21.250Z,1.80
2018-06-20T12:08:55.217Z,1.65
2018-06-20T12:11:29.000Z,1.30
2018-06-20T12:14:03.094Z,1.55
2018-06-20T12:16:31.757Z,1.87
2018-06-20T12:19:05.746Z,2.12
2018-06-20T12:21:39.557Z,1.70
2018-06-20T12:24:13.312Z,1.62
2018-06-20T12:26:47.062Z,1.70
2018-06-20T12:29:20.908Z,1.40
2018-06-20T12:31:54.640Z,1.60
2018-06-20T12:34:28.563Z,1.40
2018-06-20T12:37:02.498Z,1.62
2018-06-20T12:39:30.292Z,1.50
2018-06-20T12:42:04.510Z,1.30
2018-06-20T12:44:38.504Z,1.57
2018-06-20T12:47:24.237Z,1.37
2018-06-20T12:49:56.750Z,1.50
2018-06-20T12:52:25.327Z,1.40
2018-06-20T12:54:54.003Z,1.70
2018-06-20T12:57:22.709Z,1.60
2018-06-20T12:59:51.298Z,1.50
2018-06-20T13:02:19.894Z,1.45
2018-06-20T13:04:48.694Z,1.47
2018-06-20T13:07:17.536Z,1.45
2018-06-20T13:09:46.150Z,1.37
2018-06-20T13:12:14.751Z,1.25
2018-06-20T13:14:43.482Z,1.22
2018-06-20T13:17:12.041Z,1.47
2018-06-20T13:19:40.660Z,1.32
2018-06-20T13:22:09.253Z,1.27
2018-06-20T13:24:37.832Z,1.70
2018-06-20T13:27:06.414Z,1.70
2018-06-20T13:29:35.030Z,1.10
2018-06-20T13:32:08.890Z,1.02
2018-06-20T13:34:42.883Z,1.05
2018-06-20T13:37:16.790Z,1.22
2018-06-20T13:39:50.703Z,1.30
2018-06-20T13:42:24.544Z,1.00
2018-06-20T13:44:53.202Z,1.22
2018-06-20T13:47:27.069Z,1.32
2018-06-20T13:49:57.816Z,0.93
2018-06-20T13:52:26.445Z,1.10
2018-06-20T13:54:57.920Z,1.02
2018-06-20T13:57:26.505Z,1.15
2018-06-20T13:59:55.083Z,1.10
2018-06-20T14:02:23.693Z,1.20
2018-06-20T14:04:52.318Z,1.10
2018-06-20T14:07:20.922Z,0.98
2018-06-20T14:09:49.493Z,1.05
2018-06-20T14:12:18.139Z,1.10
2018-06-20T14:14:46.697Z,1.20
2018-06-20T14:17:15.273Z,1.20
2018-06-20T14:19:49.187Z,1.25
2018-06-20T14:22:17.882Z,0.72
2018-06-20T14:24:46.487Z,1.10
2018-06-20T14:27:15.145Z,0.90
2018-06-20T14:29:44.216Z,1.00
2018-06-20T14:32:27.021Z,1.12
2018-06-20T14:35:00.865Z,1.07
2018-06-20T14:37:34.609Z,2.17
2018-06-20T14:40:08.409Z,2.05
2018-06-20T14:42:42.141Z,1.17
2018-06-20T14:45:15.929Z,1.27
2018-06-20T14:47:44.514Z,0.85
2018-06-20T14:50:13.092Z,1.27
2018-06-20T14:52:41.775Z,1.10
2018-06-20T14:55:10.605Z,1.07
2018-06-20T14:57:39.247Z,1.00
2018-06-20T15:00:08.118Z,1.17
2018-06-20T15:02:36.729Z,1.00
2018-06-20T15:05:05.454Z,1.10
2018-06-20T15:07:34.096Z,1.00
2018-06-20T15:10:02.693Z,1.07
2018-06-20T15:12:31.275Z,1.50
2018-06-20T15:14:59.937Z,1.10
2018-06-20T15:17:29.914Z,1.10
2018-06-20T15:19:58.705Z,3.02
2018-06-20T15:22:31.540Z,2.33
2018-06-20T15:25:00.153Z,3.62
2018-06-20T15:27:34.037Z,1.40
2018-06-20T15:30:08.203Z,1.10
2018-06-20T15:32:42.108Z,1.10
2018-06-20T15:35:16.126Z,0.93
2018-06-20T15:37:49.917Z,1.10
2018-06-20T15:40:18.549Z,0.90
2018-06-20T15:42:48.949Z,1.05
2018-06-20T15:45:43.198Z,1.12
2018-06-20T15:48:11.930Z,0.88
2018-06-20T15:50:40.583Z,0.95
2018-06-20T15:53:09.169Z,0.90
2018-06-20T15:55:37.770Z,0.93
2018-06-20T15:58:06.349Z,1.60
2018-06-20T16:00:34.916Z,1.40
2018-06-20T16:03:03.521Z,2.00
2018-06-20T16:05:32.109Z,1.20
2018-06-20T16:08:00.696Z,1.57
2018-06-20T16:10:29.270Z,0.98
2018-06-20T16:12:57.845Z,1.07
2018-06-20T16:15:26.417Z,0.80
2018-06-20T16:17:55.010Z,0.88
2018-06-20T16:20:29.037Z,1.00
2018-06-20T16:23:02.852Z,0.70
2018-06-20T16:25:36.649Z,0.98
2018-06-20T16:28:10.645Z,0.90
2018-06-20T16:30:40.154Z,0.90
2018-06-20T16:33:08.868Z,1.00
2018-06-20T16:35:38.029Z,1.00
2018-06-20T16:38:06.940Z,0.90
2018-06-20T16:40:35.571Z,1.10
2018-06-20T16:43:04.272Z,1.00
2018-06-20T16:45:32.895Z,0.78
2018-06-20T16:48:01.569Z,0.93
2018-06-20T16:50:30.202Z,0.75
2018-06-20T16:52:58.490Z,0.90
2018-06-20T16:55:27.133Z,0.90
2018-06-20T16:57:55.746Z,1.10
2018-06-20T17:00:24.325Z,0.85
2018-06-20T17:02:52.929Z,1.07
2018-06-20T17:05:21.503Z,1.67
2018-06-20T17:07:50.102Z,0.88
2018-06-20T17:10:20.933Z,1.10
2018-06-20T17:12:55.745Z,1.37
2018-06-20T17:15:29.597Z,1.05
2018-06-20T17:18:03.659Z,0.93
2018-06-20T17:20:37.601Z,1.10
2018-06-20T17:23:11.465Z,0.80
2018-06-20T17:25:40.090Z,0.98
2018-06-20T17:28:08.704Z,1.00
2018-06-20T17:30:37.274Z,1.15
2018-06-20T17:33:06.093Z,0.82
2018-06-20T17:35:34.721Z,1.00
2018-06-20T17:38:03.017Z,1.20
2018-06-20T17:40:31.600Z,1.10
2018-06-20T17:43:00.216Z,1.05
2018-06-20T17:45:28.469Z,1.25
2018-06-20T17:47:57.064Z,1.30
2018-06-20T17:50:25.659Z,0.95
2018-06-20T17:52:54.262Z,1.50
2018-06-20T17:55:22.861Z,1.20
2018-06-20T17:57:51.437Z,1.22
2018-06-20T18:00:20.046Z,1.42
2018-06-20T18:02:48.666Z,1.57
2018-06-20T18:05:22.615Z,1.40
2018-06-20T18:07:56.284Z,1.25
2018-06-20T18:10:30.009Z,1.07
2018-06-20T18:13:04.630Z,1.37
2018-06-20T18:15:38.458Z,1.22
2018-06-20T18:18:07.525Z,1.40
2018-06-20T18:20:36.111Z,1.22
2018-06-20T18:23:04.835Z,1.52
2018-06-20T18:25:33.451Z,1.20
2018-06-20T18:28:02.063Z,1.12
2018-06-20T18:30:30.664Z,1.30
2018-06-20T18:32:59.246Z,1.17
2018-06-20T18:35:27.860Z,1.25
2018-06-20T18:37:56.508Z,1.30
2018-06-20T18:40:25.130Z,1.25
2018-06-20T18:42:53.763Z,1.32
2018-06-20T18:45:22.461Z,1.20
2018-06-20T18:47:56.374Z,1.27
2018-06-20T18:50:24.965Z,1.37
2018-06-20T18:52:53.573Z,1.60
2018-06-20T18:55:22.175Z,1.35
2018-06-20T18:57:56.046Z,1.40
2018-06-20T19:01:30.902Z,1.42
2018-06-20T19:04:04.881Z,1.30
2018-06-20T19:06:38.734Z,1.50
2018-06-20T19:09:12.285Z,1.37
2018-06-20T19:11:40.965Z,1.60
2018-06-20T19:14:09.655Z,1.65
2018-06-20T19:16:38.289Z,1.45
2018-06-20T19:19:06.926Z,1.60
2018-06-20T19:21:35.663Z,1.67
2018-06-20T19:24:04.248Z,1.70
2018-06-20T19:26:32.890Z,1.62
2018-06-20T19:29:01.565Z,1.65
2018-06-20T19:31:30.292Z,2.00
2018-06-20T19:33:58.961Z,1.70
2018-06-20T19:36:27.650Z,1.70
2018-06-20T19:38:56.250Z,1.80
2018-06-20T19:41:24.841Z,1.67
2018-06-20T19:43:58.854Z,2.00
2018-06-20T19:46:27.480Z,1.90
2018-06-20T19:48:56.109Z,1.73
2018-06-20T19:51:24.697Z,1.97
2018-06-20T19:53:53.273Z,2.20
2018-06-20T19:56:21.901Z,2.20
2018-06-20T19:58:50.481Z,1.90
2018-06-20T20:01:19.045Z,2.20
2018-06-20T20:03:47.672Z,2.00
2018-06-20T20:06:16.238Z,2.30
2018-06-20T20:08:44.818Z,2.20
2018-06-20T20:11:13.387Z,2.07
2018-06-20T20:13:41.966Z,2.10
2018-06-20T20:16:10.525Z,1.90
2018-06-20T20:18:39.146Z,2.30
2018-06-20T20:21:07.749Z,2.37
2018-06-20T20:23:36.333Z,2.10
2018-06-20T20:26:04.952Z,2.03
2018-06-20T20:28:33.510Z,2.03
2018-06-20T20:31:02.121Z,1.80
2018-06-20T20:33:30.713Z,2.00
2018-06-20T20:35:59.286Z,1.77
2018-06-20T20:38:27.847Z,2.20
2018-06-20T20:40:56.449Z,2.10
2018-06-20T20:43:25.022Z,2.20
2018-06-20T20:45:53.612Z,2.30
2018-06-20T20:48:22.165Z,2.07
2018-06-20T20:50:50.757Z,2.40
2018-06-20T20:53:19.327Z,2.53
2018-06-20T20:55:47.925Z,2.23
2018-06-20T20:58:16.493Z,2.50
2018-06-20T21:00:45.061Z,2.20
2018-06-20T21:03:13.674Z,1.77
2018-06-20T21:05:41.893Z,2.40
2018-06-20T21:08:10.529Z,2.43
2018-06-20T21:10:39.093Z,2.60
2018-06-20T21:13:07.798Z,2.33
2018-06-20T21:15:36.372Z,2.20
2018-06-20T21:18:05.011Z,2.30
2018-06-20T21:20:33.593Z,2.60
2018-06-20T21:23:02.236Z,2.53
2018-06-20T21:25:30.829Z,2.40
2018-06-20T21:27:59.394Z,2.60
2018-06-20T21:30:27.994Z,2.20
2018-06-20T21:32:56.574Z,2.10
2018-06-20T21:35:25.241Z,2.40
2018-06-20T21:37:53.993Z,2.63
2018-06-20T21:40:22.582Z,2.43
2018-06-20T21:42:51.169Z,2.50
2018-06-20T21:45:19.778Z,2.40
2018-06-20T21:47:48.341Z,2.90
2018-06-20T21:50:16.953Z,2.63
2018-06-20T21:52:45.634Z,2.40
2018-06-20T21:55:14.198Z,2.90
2018-06-20T21:57:42.825Z,2.50
2018-06-20T22:00:12.369Z,2.80
2018-06-20T22:02:41.259Z,2.50
2018-06-20T22:05:09.854Z,2.57
2018-06-20T22:07:38.762Z,2.70
2018-06-20T22:10:07.841Z,2.80
2018-06-20T22:12:36.470Z,2.70
2018-06-20T22:15:05.095Z,2.50
2018-06-20T22:17:33.943Z,2.53
2018-06-20T22:20:02.533Z,3.03
2018-06-20T22:22:31.142Z,2.93
2018-06-20T22:24:59.705Z,3.20
2018-06-20T22:27:28.313Z,2.90
2018-06-20T22:29:56.562Z,2.83
2018-06-20T22:32:25.137Z,2.70
2018-06-20T22:34:53.761Z,2.47
2018-06-20T22:37:22.361Z,2.80
2018-06-20T22:39:50.929Z,2.90
2018-06-20T22:42:19.508Z,2.80
2018-06-20T22:44:48.124Z,3.20
2018-06-20T22:47:16.686Z,3.13
2018-06-20T22:49:45.300Z,2.90
2018-06-20T22:52:13.869Z,3.20
2018-06-20T22:54:42.449Z,2.53
2018-06-20T22:57:11.001Z,2.77
2018-06-20T22:59:39.577Z,2.90
2018-06-20T23:02:08.134Z,2.90
2018-06-20T23:04:36.711Z,3.20
2018-06-20T23:07:05.394Z,3.07
2018-06-20T23:09:33.990Z,3.13
2018-06-20T23:12:02.564Z,2.93
2018-06-20T23:14:31.145Z,3.40
2018-06-20T23:16:59.715Z,2.70
2018-06-20T23:19:28.277Z,2.80
2018-06-20T23:21:56.866Z,3.27
2018-06-20T23:24:25.450Z,3.10
2018-06-20T23:26:54.038Z,3.10
2018-06-20T23:29:22.609Z,3.03
2018-06-20T23:31:51.197Z,3.50
2018-06-20T23:34:19.754Z,3.10
2018-06-20T23:36:48.377Z,3.50
2018-06-20T23:39:16.937Z,2.90
2018-06-20T23:41:45.616Z,3.30
2018-06-20T23:44:14.217Z,3.13
2018-06-20T23:46:42.794Z,3.53
2018-06-20T23:49:11.386Z,3.60
2018-06-20T23:51:39.602Z,3.37
2018-06-20T23:54:08.200Z,3.67
2018-06-20T23:56:36.778Z,3.20
2018-06-20T23:59:05.389Z,3.30
